sensor_id;sensor_type;location;lat;lon;timestamp;temperature;humidity
26037;DHT22;13810;48.376;10.944;2023-04-28T00:00:26;7.40;99.90
26037;DHT22;13810;48.376;10.944;2023-04-28T00:00:56;7.40;99.90
26037;DHT22;13810;48.376;10.944;2023-04-28T00:01:27;7.30;99.90
26037;DHT22;13810;48.376;10.944;2023-04-28T00:01:57;7.30;99.90
26037;DHT22;13810;48.376;10.944;2023-04-28T00:02:28;7.30;99.90
26037;DHT22;13810;48.376;10.944;2023-04-28T00:02:59;7.30;99.90
26037;DHT22;13810;48.376;10.944;2023-04-28T00:03:29;7.30;99.90
26037;DHT22;13810;48.376;10.944;2023-04-28T00:04:00;7.30;99.90
26037;DHT22;13810;48.376;10.944;2023-04-28T00:04:31;7.30;99.90
26037;DHT22;13810;48.376;10.944;2023-04-28T00:05:01;7.30;99.90
26037;DHT22;13810;48.376;10.944;2023-04-28T00:05:32;7.30;99.90
26037;DHT22;13810;48.376;10.944;2023-04-28T00:06:03;7.30;99.90
26037;DHT22;13810;48.376;10.944;2023-04-28T00:06:34;7.30;99.90
26037;DHT22;13810;48.376;10.944;2023-04-28T00:07:04;7.30;99.90
26037;DHT22;13810;48.376;10.944;2023-04-28T00:07:35;7.30;99.90
26037;DHT22;13810;48.376;10.944;2023-04-28T00:08:07;7.30;99.90
26037;DHT22;13810;48.376;10.944;2023-04-28T00:08:37;7.30;99.90
26037;DHT22;13810;48.376;10.944;2023-04-28T00:09:08;7.40;99.90
26037;DHT22;13810;48.376;10.944;2023-04-28T00:09:41;7.30;99.90
26037;DHT22;13810;48.376;10.944;2023-04-28T00:10:12;7.40;99.90
26037;DHT22;13810;48.376;10.944;2023-04-28T00:10:43;7.40;99.90
26037;DHT22;13810;48.376;10.944;2023-04-28T00:11:13;7.40;99.90
26037;DHT22;13810;48.376;10.944;2023-04-28T00:11:44;7.30;99.90
26037;DHT22;13810;48.376;10.944;2023-04-28T00:12:16;7.40;99.90
26037;DHT22;13810;48.376;10.944;2023-04-28T00:12:46;7.40;99.90
26037;DHT22;13810;48.376;10.944;2023-04-28T00:13:17;7.40;99.90
26037;DHT22;13810;48.376;10.944;2023-04-28T00:13:48;7.40;99.90
26037;DHT22;13810;48.376;10.944;2023-04-28T00:14:18;7.40;99.90
26037;DHT22;13810;48.376;10.944;2023-04-28T00:14:49;7.40;99.90
26037;DHT22;13810;48.376;10.944;2023-04-28T00:15:19;7.40;99.90
26037;DHT22;13810;48.376;10.944;2023-04-28T00:15:50;7.40;99.90
26037;DHT22;13810;48.376;10.944;2023-04-28T00:16:23;7.40;99.90
26037;DHT22;13810;48.376;10.944;2023-04-28T00:16:53;7.40;99.90
26037;DHT22;13810;48.376;10.944;2023-04-28T00:17:27;7.40;99.90
26037;DHT22;13810;48.376;10.944;2023-04-28T00:17:57;7.40;99.90
26037;DHT22;13810;48.376;10.944;2023-04-28T00:18:28;7.40;99.90
26037;DHT22;13810;48.376;10.944;2023-04-28T00:18:58;7.40;99.90
26037;DHT22;13810;48.376;10.944;2023-04-28T00:19:29;7.40;99.90
26037;DHT22;13810;48.376;10.944;2023-04-28T00:20:00;7.40;99.90
26037;DHT22;13810;48.376;10.944;2023-04-28T00:20:30;7.40;99.90
26037;DHT22;13810;48.376;10.944;2023-04-28T00:21:01;7.40;99.90
26037;DHT22;13810;48.376;10.944;2023-04-28T00:21:32;7.40;99.90
26037;DHT22;13810;48.376;10.944;2023-04-28T00:22:02;7.40;99.90
26037;DHT22;13810;48.376;10.944;2023-04-28T00:22:34;7.40;99.90
26037;DHT22;13810;48.376;10.944;2023-04-28T00:23:04;7.40;99.90
26037;DHT22;13810;48.376;10.944;2023-04-28T00:23:35;7.40;99.90
26037;DHT22;13810;48.376;10.944;2023-04-28T00:24:06;7.40;99.90
26037;DHT22;13810;48.376;10.944;2023-04-28T00:24:37;7.40;99.90
26037;DHT22;13810;48.376;10.944;2023-04-28T00:25:08;7.40;99.90
26037;DHT22;13810;48.376;10.944;2023-04-28T00:25:38;7.40;99.90
26037;DHT22;13810;48.376;10.944;2023-04-28T00:26:09;7.50;99.90
26037;DHT22;13810;48.376;10.944;2023-04-28T00:26:41;7.50;99.90
26037;DHT22;13810;48.376;10.944;2023-04-28T00:27:12;7.40;99.90
26037;DHT22;13810;48.376;10.944;2023-04-28T00:27:42;7.50;99.90
26037;DHT22;13810;48.376;10.944;2023-04-28T00:28:13;7.50;99.90
26037;DHT22;13810;48.376;10.944;2023-04-28T00:28:43;7.50;99.90
26037;DHT22;13810;48.376;10.944;2023-04-28T00:29:14;7.50;99.90
26037;DHT22;13810;48.376;10.944;2023-04-28T00:29:45;7.50;99.90
26037;DHT22;13810;48.376;10.944;2023-04-28T00:30:15;7.50;99.90
26037;DHT22;13810;48.376;10.944;2023-04-28T00:30:46;7.50;99.90
26037;DHT22;13810;48.376;10.944;2023-04-28T00:31:17;7.50;99.90
26037;DHT22;13810;48.376;10.944;2023-04-28T00:31:47;7.50;99.90
26037;DHT22;13810;48.376;10.944;2023-04-28T00:32:18;7.50;99.90
26037;DHT22;13810;48.376;10.944;2023-04-28T00:32:49;7.50;99.90
26037;DHT22;13810;48.376;10.944;2023-04-28T00:33:21;7.50;99.90
26037;DHT22;13810;48.376;10.944;2023-04-28T00:33:51;7.50;99.90
26037;DHT22;13810;48.376;10.944;2023-04-28T00:34:22;7.50;99.90
26037;DHT22;13810;48.376;10.944;2023-04-28T00:34:52;7.50;99.90
26037;DHT22;13810;48.376;10.944;2023-04-28T00:35:23;7.50;99.90
26037;DHT22;13810;48.376;10.944;2023-04-28T00:36:00;7.50;99.90
26037;DHT22;13810;48.376;10.944;2023-04-28T00:36:31;7.50;99.90
26037;DHT22;13810;48.376;10.944;2023-04-28T00:37:03;7.50;99.90
26037;DHT22;13810;48.376;10.944;2023-04-28T00:37:37;7.50;99.90
26037;DHT22;13810;48.376;10.944;2023-04-28T00:38:08;7.40;99.90
26037;DHT22;13810;48.376;10.944;2023-04-28T00:38:39;7.50;99.90
26037;DHT22;13810;48.376;10.944;2023-04-28T00:39:09;7.40;99.90
26037;DHT22;13810;48.376;10.944;2023-04-28T00:39:40;7.40;99.90
26037;DHT22;13810;48.376;10.944;2023-04-28T00:40:11;7.40;99.90
26037;DHT22;13810;48.376;10.944;2023-04-28T00:40:42;7.40;99.90
26037;DHT22;13810;48.376;10.944;2023-04-28T00:41:12;7.40;99.90
26037;DHT22;13810;48.376;10.944;2023-04-28T00:41:44;7.40;99.90
26037;DHT22;13810;48.376;10.944;2023-04-28T00:42:15;7.40;99.90
26037;DHT22;13810;48.376;10.944;2023-04-28T00:42:46;7.40;99.90
26037;DHT22;13810;48.376;10.944;2023-04-28T00:43:16;7.50;99.90
26037;DHT22;13810;48.376;10.944;2023-04-28T00:43:48;7.40;99.90
26037;DHT22;13810;48.376;10.944;2023-04-28T00:44:19;7.50;99.90
26037;DHT22;13810;48.376;10.944;2023-04-28T00:44:50;7.50;99.90
26037;DHT22;13810;48.376;10.944;2023-04-28T00:45:21;7.50;99.90
26037;DHT22;13810;48.376;10.944;2023-04-28T00:45:51;7.50;99.90
26037;DHT22;13810;48.376;10.944;2023-04-28T00:46:32;7.50;99.90
26037;DHT22;13810;48.376;10.944;2023-04-28T00:47:03;7.60;99.90
26037;DHT22;13810;48.376;10.944;2023-04-28T00:47:34;7.50;99.90
26037;DHT22;13810;48.376;10.944;2023-04-28T00:48:06;7.60;99.90
26037;DHT22;13810;48.376;10.944;2023-04-28T00:48:37;7.60;99.90
26037;DHT22;13810;48.376;10.944;2023-04-28T00:49:08;7.60;99.90
26037;DHT22;13810;48.376;10.944;2023-04-28T00:49:39;7.60;99.90
26037;DHT22;13810;48.376;10.944;2023-04-28T00:50:10;7.60;99.90
26037;DHT22;13810;48.376;10.944;2023-04-28T00:50:42;7.60;99.90
26037;DHT22;13810;48.376;10.944;2023-04-28T00:51:13;7.60;99.90
26037;DHT22;13810;48.376;10.944;2023-04-28T00:51:43;7.60;99.90
26037;DHT22;13810;48.376;10.944;2023-04-28T00:52:14;7.60;99.90
26037;DHT22;13810;48.376;10.944;2023-04-28T00:52:45;7.60;99.90
26037;DHT22;13810;48.376;10.944;2023-04-28T00:53:16;7.60;99.90
26037;DHT22;13810;48.376;10.944;2023-04-28T00:53:47;7.60;99.90
26037;DHT22;13810;48.376;10.944;2023-04-28T00:54:18;7.60;99.90
26037;DHT22;13810;48.376;10.944;2023-04-28T00:54:49;7.60;99.90
26037;DHT22;13810;48.376;10.944;2023-04-28T00:55:20;7.60;99.90
26037;DHT22;13810;48.376;10.944;2023-04-28T00:55:52;7.60;99.90
26037;DHT22;13810;48.376;10.944;2023-04-28T00:56:23;7.60;99.90
26037;DHT22;13810;48.376;10.944;2023-04-28T00:56:56;7.60;99.90
26037;DHT22;13810;48.376;10.944;2023-04-28T00:57:28;7.60;99.90
26037;DHT22;13810;48.376;10.944;2023-04-28T00:58:01;7.60;99.90
26037;DHT22;13810;48.376;10.944;2023-04-28T00:58:33;7.60;99.90
26037;DHT22;13810;48.376;10.944;2023-04-28T00:59:03;7.60;99.90
26037;DHT22;13810;48.376;10.944;2023-04-28T00:59:34;7.60;99.90
26037;DHT22;13810;48.376;10.944;2023-04-28T01:00:05;7.60;99.90
26037;DHT22;13810;48.376;10.944;2023-04-28T01:00:36;7.60;99.90
26037;DHT22;13810;48.376;10.944;2023-04-28T01:01:08;7.60;99.90
26037;DHT22;13810;48.376;10.944;2023-04-28T01:01:39;7.70;99.90
26037;DHT22;13810;48.376;10.944;2023-04-28T01:02:10;7.60;99.90
26037;DHT22;13810;48.376;10.944;2023-04-28T01:02:46;7.60;99.90
26037;DHT22;13810;48.376;10.944;2023-04-28T01:03:17;7.60;99.90
26037;DHT22;13810;48.376;10.944;2023-04-28T01:03:48;7.60;99.90
26037;DHT22;13810;48.376;10.944;2023-04-28T01:04:19;7.60;99.90
26037;DHT22;13810;48.376;10.944;2023-04-28T01:04:50;7.60;99.90
26037;DHT22;13810;48.376;10.944;2023-04-28T01:05:24;7.60;99.90
26037;DHT22;13810;48.376;10.944;2023-04-28T01:05:55;7.60;99.90
26037;DHT22;13810;48.376;10.944;2023-04-28T01:06:27;7.60;99.90
26037;DHT22;13810;48.376;10.944;2023-04-28T01:06:59;7.60;99.90
26037;DHT22;13810;48.376;10.944;2023-04-28T01:07:30;7.60;99.90
26037;DHT22;13810;48.376;10.944;2023-04-28T01:08:01;7.60;99.90
26037;DHT22;13810;48.376;10.944;2023-04-28T01:08:34;7.60;99.90
26037;DHT22;13810;48.376;10.944;2023-04-28T01:09:05;7.50;99.90
26037;DHT22;13810;48.376;10.944;2023-04-28T01:09:37;7.50;99.90
26037;DHT22;13810;48.376;10.944;2023-04-28T01:10:08;7.50;99.90
26037;DHT22;13810;48.376;10.944;2023-04-28T01:10:42;7.50;99.90
26037;DHT22;13810;48.376;10.944;2023-04-28T01:11:13;7.50;99.90
26037;DHT22;13810;48.376;10.944;2023-04-28T01:11:44;7.50;99.90
26037;DHT22;13810;48.376;10.944;2023-04-28T01:12:14;7.50;99.90
26037;DHT22;13810;48.376;10.944;2023-04-28T01:12:45;7.50;99.90
26037;DHT22;13810;48.376;10.944;2023-04-28T01:13:15;7.50;99.90
26037;DHT22;13810;48.376;10.944;2023-04-28T01:13:46;7.50;99.90
26037;DHT22;13810;48.376;10.944;2023-04-28T01:14:17;7.50;99.90
26037;DHT22;13810;48.376;10.944;2023-04-28T01:14:48;7.50;99.90
26037;DHT22;13810;48.376;10.944;2023-04-28T01:15:20;7.50;99.90
26037;DHT22;13810;48.376;10.944;2023-04-28T01:15:51;7.60;99.90
26037;DHT22;13810;48.376;10.944;2023-04-28T01:16:21;7.50;99.90
26037;DHT22;13810;48.376;10.944;2023-04-28T01:16:52;7.50;99.90
26037;DHT22;13810;48.376;10.944;2023-04-28T01:17:23;7.50;99.90
26037;DHT22;13810;48.376;10.944;2023-04-28T01:17:54;7.60;99.90
26037;DHT22;13810;48.376;10.944;2023-04-28T01:18:25;7.60;99.90
26037;DHT22;13810;48.376;10.944;2023-04-28T01:18:55;7.60;99.90
26037;DHT22;13810;48.376;10.944;2023-04-28T01:19:26;7.50;99.90
26037;DHT22;13810;48.376;10.944;2023-04-28T01:19:57;7.50;99.90
26037;DHT22;13810;48.376;10.944;2023-04-28T01:20:28;7.50;99.90
26037;DHT22;13810;48.376;10.944;2023-04-28T01:20:58;7.50;99.90
26037;DHT22;13810;48.376;10.944;2023-04-28T01:21:30;7.60;99.90
26037;DHT22;13810;48.376;10.944;2023-04-28T01:22:01;7.50;99.90
26037;DHT22;13810;48.376;10.944;2023-04-28T01:22:33;7.60;99.90
26037;DHT22;13810;48.376;10.944;2023-04-28T01:23:04;7.60;99.90
26037;DHT22;13810;48.376;10.944;2023-04-28T01:23:35;7.60;99.90
26037;DHT22;13810;48.376;10.944;2023-04-28T01:24:05;7.60;99.90
26037;DHT22;13810;48.376;10.944;2023-04-28T01:24:36;7.60;99.90
26037;DHT22;13810;48.376;10.944;2023-04-28T01:25:07;7.60;99.90
26037;DHT22;13810;48.376;10.944;2023-04-28T01:25:38;7.60;99.90
26037;DHT22;13810;48.376;10.944;2023-04-28T01:26:08;7.60;99.90
26037;DHT22;13810;48.376;10.944;2023-04-28T01:26:39;7.60;99.90
26037;DHT22;13810;48.376;10.944;2023-04-28T01:27:10;7.60;99.90
26037;DHT22;13810;48.376;10.944;2023-04-28T01:27:41;7.60;99.90
26037;DHT22;13810;48.376;10.944;2023-04-28T01:28:11;7.60;99.90
26037;DHT22;13810;48.376;10.944;2023-04-28T01:28:42;7.60;99.90
26037;DHT22;13810;48.376;10.944;2023-04-28T01:29:12;7.60;99.90
26037;DHT22;13810;48.376;10.944;2023-04-28T01:29:43;7.60;99.90
26037;DHT22;13810;48.376;10.944;2023-04-28T01:30:14;7.60;99.90
26037;DHT22;13810;48.376;10.944;2023-04-28T01:30:44;7.60;99.90
26037;DHT22;13810;48.376;10.944;2023-04-28T01:31:15;7.60;99.90
26037;DHT22;13810;48.376;10.944;2023-04-28T01:31:46;7.60;99.90
26037;DHT22;13810;48.376;10.944;2023-04-28T01:32:16;7.60;99.90
26037;DHT22;13810;48.376;10.944;2023-04-28T01:32:47;7.70;99.90
26037;DHT22;13810;48.376;10.944;2023-04-28T01:33:18;7.70;99.90
26037;DHT22;13810;48.376;10.944;2023-04-28T01:33:48;7.70;99.90
26037;DHT22;13810;48.376;10.944;2023-04-28T01:34:19;7.70;99.90
26037;DHT22;13810;48.376;10.944;2023-04-28T01:34:49;7.70;99.90
26037;DHT22;13810;48.376;10.944;2023-04-28T01:35:21;7.70;99.90
26037;DHT22;13810;48.376;10.944;2023-04-28T01:35:56;7.70;99.90
26037;DHT22;13810;48.376;10.944;2023-04-28T01:36:27;7.70;99.90
26037;DHT22;13810;48.376;10.944;2023-04-28T01:36:58;7.70;99.90
26037;DHT22;13810;48.376;10.944;2023-04-28T01:37:28;7.70;99.90
26037;DHT22;13810;48.376;10.944;2023-04-28T01:37:59;7.70;99.90
26037;DHT22;13810;48.376;10.944;2023-04-28T01:38:30;7.70;99.90
26037;DHT22;13810;48.376;10.944;2023-04-28T01:39:00;7.70;99.90
26037;DHT22;13810;48.376;10.944;2023-04-28T01:39:31;7.80;99.90
26037;DHT22;13810;48.376;10.944;2023-04-28T01:40:01;7.80;99.90
26037;DHT22;13810;48.376;10.944;2023-04-28T01:40:33;7.80;99.90
26037;DHT22;13810;48.376;10.944;2023-04-28T01:41:04;7.80;99.90
26037;DHT22;13810;48.376;10.944;2023-04-28T01:41:34;7.80;99.90
26037;DHT22;13810;48.376;10.944;2023-04-28T01:42:05;7.80;99.90
26037;DHT22;13810;48.376;10.944;2023-04-28T01:42:36;7.80;99.90
26037;DHT22;13810;48.376;10.944;2023-04-28T01:43:06;7.80;99.90
26037;DHT22;13810;48.376;10.944;2023-04-28T01:43:37;7.80;99.90
26037;DHT22;13810;48.376;10.944;2023-04-28T01:44:08;7.80;99.90
26037;DHT22;13810;48.376;10.944;2023-04-28T01:44:38;7.80;99.90
26037;DHT22;13810;48.376;10.944;2023-04-28T01:45:10;7.80;99.90
26037;DHT22;13810;48.376;10.944;2023-04-28T01:45:41;7.80;99.90
26037;DHT22;13810;48.376;10.944;2023-04-28T01:46:12;7.80;99.90
26037;DHT22;13810;48.376;10.944;2023-04-28T01:46:42;7.80;99.90
26037;DHT22;13810;48.376;10.944;2023-04-28T01:47:13;7.80;99.90
26037;DHT22;13810;48.376;10.944;2023-04-28T01:47:43;7.80;99.90
26037;DHT22;13810;48.376;10.944;2023-04-28T01:48:14;7.80;99.90
26037;DHT22;13810;48.376;10.944;2023-04-28T01:48:45;7.80;99.90
26037;DHT22;13810;48.376;10.944;2023-04-28T01:49:15;7.90;99.90
26037;DHT22;13810;48.376;10.944;2023-04-28T01:49:46;7.80;99.90
26037;DHT22;13810;48.376;10.944;2023-04-28T01:50:19;7.80;99.90
26037;DHT22;13810;48.376;10.944;2023-04-28T01:50:49;7.80;99.90
26037;DHT22;13810;48.376;10.944;2023-04-28T01:51:20;7.90;99.90
26037;DHT22;13810;48.376;10.944;2023-04-28T01:51:51;7.90;99.90
26037;DHT22;13810;48.376;10.944;2023-04-28T01:52:21;7.90;99.90
26037;DHT22;13810;48.376;10.944;2023-04-28T01:52:53;7.80;99.90
26037;DHT22;13810;48.376;10.944;2023-04-28T01:53:24;7.90;99.90
26037;DHT22;13810;48.376;10.944;2023-04-28T01:53:55;7.90;99.90
26037;DHT22;13810;48.376;10.944;2023-04-28T01:54:26;7.90;99.90
26037;DHT22;13810;48.376;10.944;2023-04-28T01:54:57;7.90;99.90
26037;DHT22;13810;48.376;10.944;2023-04-28T01:55:27;7.90;99.90
26037;DHT22;13810;48.376;10.944;2023-04-28T01:55:58;7.90;99.90
26037;DHT22;13810;48.376;10.944;2023-04-28T01:56:29;7.90;99.90
26037;DHT22;13810;48.376;10.944;2023-04-28T01:56:59;7.90;99.90
26037;DHT22;13810;48.376;10.944;2023-04-28T01:57:31;7.90;99.90
26037;DHT22;13810;48.376;10.944;2023-04-28T01:58:04;7.90;99.90
26037;DHT22;13810;48.376;10.944;2023-04-28T01:58:35;7.90;99.90
26037;DHT22;13810;48.376;10.944;2023-04-28T01:59:05;7.90;99.90
26037;DHT22;13810;48.376;10.944;2023-04-28T01:59:36;8.00;99.90
26037;DHT22;13810;48.376;10.944;2023-04-28T02:00:07;8.00;99.90
26037;DHT22;13810;48.376;10.944;2023-04-28T02:00:38;7.90;99.90
26037;DHT22;13810;48.376;10.944;2023-04-28T02:01:09;8.00;99.90
26037;DHT22;13810;48.376;10.944;2023-04-28T02:01:40;8.00;99.90
26037;DHT22;13810;48.376;10.944;2023-04-28T02:02:11;8.00;99.90
26037;DHT22;13810;48.376;10.944;2023-04-28T02:02:41;8.00;99.90
26037;DHT22;13810;48.376;10.944;2023-04-28T02:03:12;8.00;99.90
26037;DHT22;13810;48.376;10.944;2023-04-28T02:03:43;8.00;99.90
26037;DHT22;13810;48.376;10.944;2023-04-28T02:04:13;8.00;99.90
26037;DHT22;13810;48.376;10.944;2023-04-28T02:04:44;8.00;99.90
26037;DHT22;13810;48.376;10.944;2023-04-28T02:05:14;8.00;99.90
26037;DHT22;13810;48.376;10.944;2023-04-28T02:05:45;8.10;99.90
26037;DHT22;13810;48.376;10.944;2023-04-28T02:06:16;8.10;99.90
26037;DHT22;13810;48.376;10.944;2023-04-28T02:06:47;8.10;99.90
26037;DHT22;13810;48.376;10.944;2023-04-28T02:07:17;8.10;99.90
26037;DHT22;13810;48.376;10.944;2023-04-28T02:07:48;8.10;99.90
26037;DHT22;13810;48.376;10.944;2023-04-28T02:08:18;8.10;99.90
26037;DHT22;13810;48.376;10.944;2023-04-28T02:08:49;8.10;99.90
26037;DHT22;13810;48.376;10.944;2023-04-28T02:09:20;8.10;99.90
26037;DHT22;13810;48.376;10.944;2023-04-28T02:09:50;8.10;99.90
26037;DHT22;13810;48.376;10.944;2023-04-28T02:10:21;8.00;99.90
26037;DHT22;13810;48.376;10.944;2023-04-28T02:10:51;8.10;99.90
26037;DHT22;13810;48.376;10.944;2023-04-28T02:11:22;8.10;99.90
26037;DHT22;13810;48.376;10.944;2023-04-28T02:11:53;8.00;99.90
26037;DHT22;13810;48.376;10.944;2023-04-28T02:12:23;8.10;99.90
26037;DHT22;13810;48.376;10.944;2023-04-28T02:12:54;8.00;99.90
26037;DHT22;13810;48.376;10.944;2023-04-28T02:13:25;8.00;99.90
26037;DHT22;13810;48.376;10.944;2023-04-28T02:13:55;8.00;99.90
26037;DHT22;13810;48.376;10.944;2023-04-28T02:14:26;8.00;99.90
26037;DHT22;13810;48.376;10.944;2023-04-28T02:14:57;8.00;99.90
26037;DHT22;13810;48.376;10.944;2023-04-28T02:15:27;8.00;99.90
26037;DHT22;13810;48.376;10.944;2023-04-28T02:16:01;8.00;99.90
26037;DHT22;13810;48.376;10.944;2023-04-28T02:16:32;8.00;99.90
26037;DHT22;13810;48.376;10.944;2023-04-28T02:17:03;8.00;99.90
26037;DHT22;13810;48.376;10.944;2023-04-28T02:17:34;8.00;99.90
26037;DHT22;13810;48.376;10.944;2023-04-28T02:18:05;8.00;99.90
26037;DHT22;13810;48.376;10.944;2023-04-28T02:18:36;8.00;99.90
26037;DHT22;13810;48.376;10.944;2023-04-28T02:19:06;8.00;99.90
26037;DHT22;13810;48.376;10.944;2023-04-28T02:19:37;8.00;99.90
26037;DHT22;13810;48.376;10.944;2023-04-28T02:20:08;8.00;99.90
26037;DHT22;13810;48.376;10.944;2023-04-28T02:20:39;8.00;99.90
26037;DHT22;13810;48.376;10.944;2023-04-28T02:21:11;8.00;99.90
26037;DHT22;13810;48.376;10.944;2023-04-28T02:21:42;8.00;99.90
26037;DHT22;13810;48.376;10.944;2023-04-28T02:22:12;8.00;99.90
26037;DHT22;13810;48.376;10.944;2023-04-28T02:22:43;8.00;99.90
26037;DHT22;13810;48.376;10.944;2023-04-28T02:23:14;8.10;99.90
26037;DHT22;13810;48.376;10.944;2023-04-28T02:23:44;8.10;99.90
26037;DHT22;13810;48.376;10.944;2023-04-28T02:24:15;8.10;99.90
26037;DHT22;13810;48.376;10.944;2023-04-28T02:24:46;8.10;99.90
26037;DHT22;13810;48.376;10.944;2023-04-28T02:25:17;8.10;99.90
26037;DHT22;13810;48.376;10.944;2023-04-28T02:25:47;8.10;99.90
26037;DHT22;13810;48.376;10.944;2023-04-28T02:26:18;8.10;99.90
26037;DHT22;13810;48.376;10.944;2023-04-28T02:26:49;8.10;99.90
26037;DHT22;13810;48.376;10.944;2023-04-28T02:27:20;8.10;99.90
26037;DHT22;13810;48.376;10.944;2023-04-28T02:27:50;8.10;99.90
26037;DHT22;13810;48.376;10.944;2023-04-28T02:28:21;8.10;99.90
26037;DHT22;13810;48.376;10.944;2023-04-28T02:28:52;8.10;99.90
26037;DHT22;13810;48.376;10.944;2023-04-28T02:29:22;8.10;99.90
26037;DHT22;13810;48.376;10.944;2023-04-28T02:29:54;8.20;99.90
26037;DHT22;13810;48.376;10.944;2023-04-28T02:30:24;8.10;99.90
26037;DHT22;13810;48.376;10.944;2023-04-28T02:31:08;8.20;99.90
26037;DHT22;13810;48.376;10.944;2023-04-28T02:31:38;8.20;99.90
26037;DHT22;13810;48.376;10.944;2023-04-28T02:32:09;8.20;99.90
26037;DHT22;13810;48.376;10.944;2023-04-28T02:32:40;8.20;99.90
26037;DHT22;13810;48.376;10.944;2023-04-28T02:33:10;8.20;99.90
26037;DHT22;13810;48.376;10.944;2023-04-28T02:33:41;8.20;99.90
26037;DHT22;13810;48.376;10.944;2023-04-28T02:34:13;8.20;99.90
26037;DHT22;13810;48.376;10.944;2023-04-28T02:34:43;8.20;99.90
26037;DHT22;13810;48.376;10.944;2023-04-28T02:35:14;8.30;99.90
26037;DHT22;13810;48.376;10.944;2023-04-28T02:35:45;8.20;99.90
26037;DHT22;13810;48.376;10.944;2023-04-28T02:36:15;8.30;99.90
26037;DHT22;13810;48.376;10.944;2023-04-28T02:36:46;8.30;99.90
26037;DHT22;13810;48.376;10.944;2023-04-28T02:37:17;8.30;99.90
26037;DHT22;13810;48.376;10.944;2023-04-28T02:37:48;8.30;99.90
26037;DHT22;13810;48.376;10.944;2023-04-28T02:38:18;8.30;99.90
26037;DHT22;13810;48.376;10.944;2023-04-28T02:38:49;8.30;99.90
26037;DHT22;13810;48.376;10.944;2023-04-28T02:39:20;8.30;99.90
26037;DHT22;13810;48.376;10.944;2023-04-28T02:39:56;8.30;99.90
26037;DHT22;13810;48.376;10.944;2023-04-28T02:40:27;8.30;99.90
26037;DHT22;13810;48.376;10.944;2023-04-28T02:40:58;8.30;99.90
26037;DHT22;13810;48.376;10.944;2023-04-28T02:41:30;8.30;99.90
26037;DHT22;13810;48.376;10.944;2023-04-28T02:42:01;8.30;99.90
26037;DHT22;13810;48.376;10.944;2023-04-28T02:42:33;8.30;99.90
26037;DHT22;13810;48.376;10.944;2023-04-28T02:43:03;8.30;99.90
26037;DHT22;13810;48.376;10.944;2023-04-28T02:43:34;8.20;99.90
26037;DHT22;13810;48.376;10.944;2023-04-28T02:44:06;8.20;99.90
26037;DHT22;13810;48.376;10.944;2023-04-28T02:44:37;8.20;99.90
26037;DHT22;13810;48.376;10.944;2023-04-28T02:45:07;8.20;99.90
26037;DHT22;13810;48.376;10.944;2023-04-28T02:45:38;8.20;99.90
26037;DHT22;13810;48.376;10.944;2023-04-28T02:46:09;8.20;99.90
26037;DHT22;13810;48.376;10.944;2023-04-28T02:46:40;8.20;99.90
26037;DHT22;13810;48.376;10.944;2023-04-28T02:47:11;8.20;99.90
26037;DHT22;13810;48.376;10.944;2023-04-28T02:47:41;8.20;99.90
26037;DHT22;13810;48.376;10.944;2023-04-28T02:48:12;8.20;99.90
26037;DHT22;13810;48.376;10.944;2023-04-28T02:48:43;8.20;99.90
26037;DHT22;13810;48.376;10.944;2023-04-28T02:49:13;8.10;99.90
26037;DHT22;13810;48.376;10.944;2023-04-28T02:49:44;8.10;99.90
26037;DHT22;13810;48.376;10.944;2023-04-28T02:50:15;8.20;99.90
26037;DHT22;13810;48.376;10.944;2023-04-28T02:50:45;8.20;99.90
26037;DHT22;13810;48.376;10.944;2023-04-28T02:51:16;8.20;99.90
26037;DHT22;13810;48.376;10.944;2023-04-28T02:51:46;8.10;99.90
26037;DHT22;13810;48.376;10.944;2023-04-28T02:52:17;8.20;99.90
26037;DHT22;13810;48.376;10.944;2023-04-28T02:52:48;8.10;99.90
26037;DHT22;13810;48.376;10.944;2023-04-28T02:53:19;8.10;99.90
26037;DHT22;13810;48.376;10.944;2023-04-28T02:53:49;8.20;99.90
26037;DHT22;13810;48.376;10.944;2023-04-28T02:54:20;8.20;99.90
26037;DHT22;13810;48.376;10.944;2023-04-28T02:54:57;8.20;99.90
26037;DHT22;13810;48.376;10.944;2023-04-28T02:55:27;8.20;99.90
26037;DHT22;13810;48.376;10.944;2023-04-28T02:55:58;8.20;99.90
26037;DHT22;13810;48.376;10.944;2023-04-28T02:56:31;8.20;99.90
26037;DHT22;13810;48.376;10.944;2023-04-28T02:57:02;8.20;99.90
26037;DHT22;13810;48.376;10.944;2023-04-28T02:57:34;8.20;99.90
26037;DHT22;13810;48.376;10.944;2023-04-28T02:58:04;8.30;99.90
26037;DHT22;13810;48.376;10.944;2023-04-28T02:58:35;8.30;99.90
26037;DHT22;13810;48.376;10.944;2023-04-28T02:59:06;8.20;99.90
26037;DHT22;13810;48.376;10.944;2023-04-28T02:59:37;8.20;99.90
26037;DHT22;13810;48.376;10.944;2023-04-28T03:00:08;8.20;99.90
26037;DHT22;13810;48.376;10.944;2023-04-28T03:00:39;8.20;99.90
26037;DHT22;13810;48.376;10.944;2023-04-28T03:01:10;8.20;99.90
26037;DHT22;13810;48.376;10.944;2023-04-28T03:01:41;8.30;99.90
26037;DHT22;13810;48.376;10.944;2023-04-28T03:02:11;8.20;99.90
26037;DHT22;13810;48.376;10.944;2023-04-28T03:02:42;8.20;99.90
26037;DHT22;13810;48.376;10.944;2023-04-28T03:03:12;8.20;99.90
26037;DHT22;13810;48.376;10.944;2023-04-28T03:03:43;8.30;99.90
26037;DHT22;13810;48.376;10.944;2023-04-28T03:04:14;8.30;99.90
26037;DHT22;13810;48.376;10.944;2023-04-28T03:04:45;8.20;99.90
26037;DHT22;13810;48.376;10.944;2023-04-28T03:05:16;8.20;99.90
26037;DHT22;13810;48.376;10.944;2023-04-28T03:05:46;8.30;99.90
26037;DHT22;13810;48.376;10.944;2023-04-28T03:06:17;8.20;99.90
26037;DHT22;13810;48.376;10.944;2023-04-28T03:06:47;8.20;99.90
26037;DHT22;13810;48.376;10.944;2023-04-28T03:07:18;8.20;99.90
26037;DHT22;13810;48.376;10.944;2023-04-28T03:07:49;8.20;99.90
26037;DHT22;13810;48.376;10.944;2023-04-28T03:08:19;8.20;99.90
26037;DHT22;13810;48.376;10.944;2023-04-28T03:08:50;8.30;99.90
26037;DHT22;13810;48.376;10.944;2023-04-28T03:09:21;8.20;99.90
26037;DHT22;13810;48.376;10.944;2023-04-28T03:09:51;8.20;99.90
26037;DHT22;13810;48.376;10.944;2023-04-28T03:10:22;8.30;99.90
26037;DHT22;13810;48.376;10.944;2023-04-28T03:10:52;8.20;99.90
26037;DHT22;13810;48.376;10.944;2023-04-28T03:11:23;8.20;99.90
26037;DHT22;13810;48.376;10.944;2023-04-28T03:11:54;8.30;99.90
26037;DHT22;13810;48.376;10.944;2023-04-28T03:12:24;8.20;99.90
26037;DHT22;13810;48.376;10.944;2023-04-28T03:12:55;8.30;99.90
26037;DHT22;13810;48.376;10.944;2023-04-28T03:13:26;8.30;99.90
26037;DHT22;13810;48.376;10.944;2023-04-28T03:13:56;8.30;99.90
26037;DHT22;13810;48.376;10.944;2023-04-28T03:14:27;8.30;99.90
26037;DHT22;13810;48.376;10.944;2023-04-28T03:14:58;8.30;99.90
26037;DHT22;13810;48.376;10.944;2023-04-28T03:15:28;8.30;99.90
26037;DHT22;13810;48.376;10.944;2023-04-28T03:15:59;8.40;99.90